Time,TemperatureF,DewpointF,PressureIn,WindDirection,WindDirectionDegrees,WindSpeedMPH,WindSpeedGustMPH,Humidity,HourlyPrecipIn,Conditions,Clouds,dailyrainin,SoftwareType,DateUTC
2013-04-10 00:03:00,54.1,52.4,29.69,NW,309,6.0,15.0,94,0.01,RA,SKC,0.01,WeatherDisplay:10.37,2013-04-10 05:03:00,
2013-04-10 00:08:00,53.4,51.7,29.70,NW,315,8.0,12.0,94,0.00,RA,SKC,0.01,WeatherDisplay:10.37,2013-04-10 05:08:00,
2013-04-10 00:13:00,52.7,51.1,29.72,NW,310,7.0,10.0,94,0.00,CLR,SKC,0.01,WeatherDisplay:10.37,2013-04-10 05:13:00,
2013-04-10 00:18:00,52.3,50.6,29.72,WNW,299,8.0,13.0,94,0.02,RA,SKC,0.03,WeatherDisplay:10.37,2013-04-10 05:18:00,
2013-04-10 00:23:00,51.5,49.8,29.73,WNW,303,9.0,13.0,94,0.01,RA,SKC,0.04,WeatherDisplay:10.37,2013-04-10 05:23:00,
2013-04-10 00:28:00,50.8,49.1,29.74,NW,309,9.0,13.0,94,0.01,RA,SKC,0.05,WeatherDisplay:10.37,2013-04-10 05:28:00,
2013-04-10 00:38:00,49.8,48.1,29.78,NW,305,9.0,18.0,94,0.00,CLR,SKC,0.05,WeatherDisplay:10.37,2013-04-10 05:38:00,
2013-04-10 00:48:00,48.9,47.3,29.79,NW,312,10.0,18.0,94,0.00,CLR,SKC,0.05,WeatherDisplay:10.37,2013-04-10 05:48:00,
2013-04-10 00:53:00,48.3,46.4,29.79,NW,304,14.0,22.0,93,0.00,CLR,SKC,0.05,WeatherDisplay:10.37,2013-04-10 05:53:00,
2013-04-10 00:58:00,47.7,45.8,29.80,NW,315,14.0,22.0,93,0.01,RA,SKC,0.06,WeatherDisplay:10.37,2013-04-10 05:58:00,
2013-04-10 01:08:00,46.7,45.1,29.79,NW,310,13.0,22.0,94,0.00,CLR,SKC,0.06,WeatherDisplay:10.37,2013-04-10 06:08:00,
2013-04-10 01:13:00,46.2,44.6,29.80,NW,320,10.0,21.0,94,0.00,CLR,SKC,0.06,WeatherDisplay:10.37,2013-04-10 06:13:00,
2013-04-10 01:18:00,45.8,44.1,29.80,NW,320,10.0,18.0,94,0.00,CLR,SKC,0.06,WeatherDisplay:10.37,2013-04-10 06:18:00,
2013-04-10 01:28:00,44.9,43.0,29.82,NW,324,13.0,20.0,93,0.00,CLR,SKC,0.06,WeatherDisplay:10.37,2013-04-10 06:28:00,
2013-04-10 01:33:00,44.3,42.4,29.80,NNW,336,15.0,24.0,93,0.01,RA,SKC,0.07,WeatherDisplay:10.37,2013-04-10 06:33:00,
2013-04-10 01:38:00,44.4,42.8,29.79,North,7,10.0,16.0,94,0.00,RA,SKC,0.07,WeatherDisplay:10.37,2013-04-10 06:38:00,
2013-04-10 01:43:00,44.6,43.2,29.80,NE,49,2.0,9.0,95,0.00,,SKC,0.07,WeatherDisplay:10.37,2013-04-10 06:43:00,
2013-04-10 01:48:00,44.9,43.5,29.81,NNE,27,3.0,11.0,95,0.00,CLR,SKC,0.07,WeatherDisplay:10.37,2013-04-10 06:48:00,
2013-04-10 01:58:00,45.2,43.6,29.79,NNW,339,6.0,13.0,94,0.00,CLR,SKC,0.07,WeatherDisplay:10.37,2013-04-10 06:58:00,
2013-04-10 02:03:00,45.2,43.6,29.78,North,356,7.0,13.0,94,0.00,CLR,SKC,0.07,WeatherDisplay:10.37,2013-04-10 07:03:00,
2013-04-10 02:08:00,45.0,43.1,29.78,North,8,8.0,15.0,93,0.00,CLR,SKC,0.07,WeatherDisplay:10.37,2013-04-10 07:08:00,
2013-04-10 02:13:00,45.1,43.5,29.77,North,11,8.0,13.0,94,0.00,CLR,SKC,0.07,WeatherDisplay:10.37,2013-04-10 07:13:00,
2013-04-10 02:18:00,45.2,43.6,29.76,NNE,16,7.0,13.0,94,0.01,RA,SKC,0.08,WeatherDisplay:10.37,2013-04-10 07:18:00,
2013-04-10 02:23:00,45.3,43.7,29.76,NNE,19,8.0,10.0,94,0.00,RA,SKC,0.08,WeatherDisplay:10.37,2013-04-10 07:23:00,
2013-04-10 02:28:00,45.5,43.9,29.74,NNE,31,10.0,15.0,94,0.01,RA,SKC,0.09,WeatherDisplay:10.37,2013-04-10 07:28:00,
2013-04-10 02:33:00,45.7,44.3,29.73,NE,45,10.0,16.0,95,0.00,RA,SKC,0.09,WeatherDisplay:10.37,2013-04-10 07:33:00,
2013-04-10 02:43:00,46.2,44.9,29.72,ENE,62,6.0,10.0,95,0.00,CLR,SKC,0.09,WeatherDisplay:10.37,2013-04-10 07:43:00,
2013-04-10 02:48:00,46.3,45.0,29.72,ENE,65,2.0,12.0,95,0.00,CLR,SKC,0.09,WeatherDisplay:10.37,2013-04-10 07:48:00,
2013-04-10 02:53:00,46.5,45.4,29.72,ENE,76,3.0,8.0,96,0.00,CLR,SKC,0.09,WeatherDisplay:10.37,2013-04-10 07:53:00,
2013-04-10 02:58:00,46.6,45.6,29.71,ENE,68,2.0,12.0,96,0.00,CLR,SKC,0.09,WeatherDisplay:10.37,2013-04-10 07:58:00,
2013-04-10 03:03:00,46.8,45.7,29.70,NE,48,6.0,10.0,96,0.00,CLR,SKC,0.09,WeatherDisplay:10.37,2013-04-10 08:03:00,
2013-04-10 03:08:00,47.0,45.9,29.70,NE,52,1.0,10.0,96,0.00,CLR,SKC,0.09,WeatherDisplay:10.37,2013-04-10 08:08:00,
2013-04-10 03:13:00,47.2,46.1,29.70,ENE,58,1.0,3.0,96,0.00,CLR,SKC,0.09,WeatherDisplay:10.37,2013-04-10 08:13:00,
2013-04-10 03:18:00,47.4,46.3,29.70,NE,50,1.0,5.0,96,0.00,CLR,SKC,0.09,WeatherDisplay:10.37,2013-04-10 08:18:00,
2013-04-10 03:28:00,47.8,46.8,29.69,NE,41,6.0,10.0,96,0.00,CLR,SKC,0.09,WeatherDisplay:10.37,2013-04-10 08:28:00,
2013-04-10 03:33:00,48.0,46.9,29.70,NE,37,2.0,8.0,96,0.00,CLR,SKC,0.10,WeatherDisplay:10.37,2013-04-10 08:33:00,
2013-04-10 03:38:00,48.2,47.1,29.71,NNE,13,3.0,5.0,96,0.03,RA,SKC,0.12,WeatherDisplay:10.37,2013-04-10 08:38:00,
2013-04-10 03:43:00,48.3,47.2,29.73,WNW,290,0.0,3.0,96,0.10,RA,SKC,0.22,WeatherDisplay:10.37,2013-04-10 08:43:00,
2013-04-10 03:48:00,48.4,47.6,29.72,West,281,0.0,2.0,97,0.03,RA,SKC,0.25,WeatherDisplay:10.37,2013-04-10 08:48:00,
2013-04-10 03:53:00,48.5,47.7,29.73,NW,311,1.0,7.0,97,0.01,RA,SKC,0.26,WeatherDisplay:10.37,2013-04-10 08:53:00,
2013-04-10 03:58:00,48.4,47.3,29.73,WNW,303,6.0,13.0,96,0.00,RA,SKC,0.26,WeatherDisplay:10.37,2013-04-10 08:58:00,
2013-04-10 04:03:00,47.8,46.8,29.73,WNW,293,7.0,12.0,96,0.01,RA,SKC,0.27,WeatherDisplay:10.37,2013-04-10 09:03:00,
2013-04-10 04:08:00,47.2,45.9,29.74,WNW,293,6.0,10.0,95,0.00,RA,SKC,0.27,WeatherDisplay:10.37,2013-04-10 09:08:00,
2013-04-10 04:13:00,46.9,45.8,29.78,WNW,285,7.0,15.0,96,0.01,RA,SKC,0.28,WeatherDisplay:10.37,2013-04-10 09:13:00,
2013-04-10 04:18:00,46.5,45.4,29.77,West,273,6.0,20.0,96,0.02,RA,SKC,0.30,WeatherDisplay:10.37,2013-04-10 09:18:00,
2013-04-10 04:23:00,46.1,45.1,29.79,West,278,9.0,20.0,96,0.02,RA,SKC,0.33,WeatherDisplay:10.37,2013-04-10 09:23:00,
2013-04-10 04:28:00,45.8,44.7,29.82,West,279,7.0,15.0,96,0.06,RA,SKC,0.38,WeatherDisplay:10.37,2013-04-10 09:28:00,
2013-04-10 04:33:00,45.6,44.5,29.73,NNW,338,12.0,15.0,96,0.04,RA,SKC,0.42,WeatherDisplay:10.37,2013-04-10 09:33:00,
2013-04-10 04:38:00,45.4,44.3,29.81,North,9,3.0,16.0,96,0.01,RA,SKC,0.43,WeatherDisplay:10.37,2013-04-10 09:38:00,
2013-04-10 04:43:00,45.5,44.7,29.79,WSW,244,3.0,10.0,97,0.01,RA,SKC,0.45,WeatherDisplay:10.37,2013-04-10 09:43:00,
2013-04-10 04:48:00,45.3,44.2,29.82,West,274,3.0,10.0,96,0.02,RA,SKC,0.46,WeatherDisplay:10.37,2013-04-10 09:48:00,
2013-04-10 04:53:00,45.3,44.2,29.80,West,278,1.0,8.0,96,0.01,RA,SKC,0.47,WeatherDisplay:10.37,2013-04-10 09:53:00,
2013-04-10 04:58:00,45.1,44.0,29.81,NW,304,3.0,10.0,96,0.00,RA,SKC,0.47,WeatherDisplay:10.37,2013-04-10 09:58:00,
2013-04-10 05:08:00,44.4,43.3,29.81,WNW,287,7.0,13.0,96,0.00,CLR,SKC,0.47,WeatherDisplay:10.37,2013-04-10 10:08:00,
2013-04-10 05:13:00,43.9,42.9,29.80,WNW,295,6.0,8.0,96,0.00,CLR,SKC,0.47,WeatherDisplay:10.37,2013-04-10 10:13:00,
2013-04-10 05:18:00,43.7,42.6,29.80,WNW,296,5.0,8.0,96,0.00,CLR,SKC,0.47,WeatherDisplay:10.37,2013-04-10 10:18:00,
2013-04-10 05:28:00,43.4,42.4,29.81,WNW,283,1.0,7.0,96,0.00,CLR,SKC,0.47,WeatherDisplay:10.37,2013-04-10 10:28:00,
2013-04-10 05:33:00,43.4,42.4,29.80,West,278,0.0,3.0,96,0.00,CLR,SKC,0.47,WeatherDisplay:10.37,2013-04-10 10:33:00,
2013-04-10 05:38:00,43.4,42.4,29.81,West,278,1.0,3.0,96,0.00,CLR,SKC,0.47,WeatherDisplay:10.37,2013-04-10 10:38:00,
2013-04-10 05:43:00,43.4,42.4,29.82,West,273,2.0,5.0,96,0.00,CLR,SKC,0.47,WeatherDisplay:10.37,2013-04-10 10:43:00,
2013-04-10 05:48:00,43.4,42.4,29.81,WNW,297,1.0,3.0,96,0.00,CLR,SKC,0.47,WeatherDisplay:10.37,2013-04-10 10:48:00,
2013-04-10 05:53:00,43.4,42.4,29.81,NW,307,3.0,7.0,96,0.00,CLR,SKC,0.47,WeatherDisplay:10.37,2013-04-10 10:53:00,
2013-04-10 05:58:00,43.5,42.4,29.80,NW,312,2.0,5.0,96,0.00,CLR,SKC,0.47,WeatherDisplay:10.37,2013-04-10 10:58:00,
2013-04-10 06:03:00,43.3,42.3,29.82,NW,312,2.0,5.0,96,0.00,CLR,SKC,0.47,WeatherDisplay:10.37,2013-04-10 11:03:00,
2013-04-10 06:08:00,43.3,42.3,29.83,WNW,291,2.0,7.0,96,0.00,CLR,SKC,0.47,WeatherDisplay:10.37,2013-04-10 11:08:00,
2013-04-10 06:13:00,43.4,42.3,29.83,WNW,295,2.0,8.0,96,0.00,CLR,SKC,0.47,WeatherDisplay:10.37,2013-04-10 11:13:00,
2013-04-10 06:18:00,43.3,42.3,29.84,NW,308,5.0,8.0,96,0.00,CLR,SKC,0.47,WeatherDisplay:10.37,2013-04-10 11:18:00,
2013-04-10 06:23:00,43.2,42.2,29.84,NW,304,6.0,8.0,96,0.00,CLR,SKC,0.47,WeatherDisplay:10.37,2013-04-10 11:23:00,
2013-04-10 06:28:00,43.1,42.1,29.84,WNW,298,5.0,8.0,96,0.00,CLR,SKC,0.47,WeatherDisplay:10.37,2013-04-10 11:28:00,
2013-04-10 06:38:00,42.9,41.9,29.86,WNW,288,5.0,7.0,96,0.00,CLR,SKC,0.47,WeatherDisplay:10.37,2013-04-10 11:38:00,
2013-04-10 06:43:00,42.9,41.9,29.85,NW,310,6.0,6.0,96,0.00,CLR,SKC,0.47,WeatherDisplay:10.37,2013-04-10 11:43:00,
2013-04-10 06:48:00,42.8,41.8,29.86,NW,313,2.0,5.0,96,0.00,CLR,SKC,0.47,WeatherDisplay:10.37,2013-04-10 11:48:00,
2013-04-10 06:53:00,42.7,41.4,29.85,NW,308,5.0,8.0,95,0.00,CLR,SKC,0.47,WeatherDisplay:10.37,2013-04-10 11:53:00,
2013-04-10 06:58:00,42.6,41.3,29.85,NW,304,3.0,10.0,95,0.00,CLR,SKC,0.47,WeatherDisplay:10.37,2013-04-10 11:58:00,
2013-04-10 07:03:00,42.5,41.2,29.83,NW,314,6.0,8.0,95,0.00,CLR,SKC,0.47,WeatherDisplay:10.37,2013-04-10 12:03:00,
2013-04-10 07:08:00,42.4,41.1,29.82,NW,325,6.0,10.0,95,0.00,CLR,SKC,0.47,WeatherDisplay:10.37,2013-04-10 12:08:00,
2013-04-10 07:13:00,42.3,41.0,29.82,NNW,327,3.0,13.0,95,0.00,CLR,SKC,0.47,WeatherDisplay:10.37,2013-04-10 12:13:00,
2013-04-10 07:18:00,42.3,41.3,29.81,NNW,336,5.0,8.0,96,0.00,CLR,SKC,0.47,WeatherDisplay:10.37,2013-04-10 12:18:00,
2013-04-10 07:23:00,42.3,40.9,29.81,North,352,3.0,10.0,95,0.00,CLR,SKC,0.47,WeatherDisplay:10.37,2013-04-10 12:23:00,
2013-04-10 07:28:00,42.2,40.9,29.81,North,350,8.0,12.0,95,0.00,CLR,SKC,0.47,WeatherDisplay:10.37,2013-04-10 12:28:00,
2013-04-10 07:38:00,42.2,41.2,29.83,NNW,331,2.0,8.0,96,0.00,CLR,SKC,0.47,WeatherDisplay:10.37,2013-04-10 12:38:00,
2013-04-10 07:43:00,42.1,40.8,29.83,NW,310,2.0,7.0,95,0.00,CLR,SKC,0.47,WeatherDisplay:10.37,2013-04-10 12:43:00,
2013-04-10 07:48:00,42.1,41.1,29.84,NW,310,3.0,10.0,96,0.00,CLR,SKC,0.47,WeatherDisplay:10.37,2013-04-10 12:48:00,
2013-04-10 07:53:00,42.1,41.1,29.84,NNW,338,3.0,8.0,96,0.00,CLR,SKC,0.47,WeatherDisplay:10.37,2013-04-10 12:53:00,
2013-04-10 07:58:00,42.2,41.2,29.84,NNW,338,3.0,5.0,96,0.00,CLR,SKC,0.47,WeatherDisplay:10.37,2013-04-10 12:58:00,
2013-04-10 08:03:00,42.2,41.2,29.84,NNW,340,3.0,8.0,96,0.00,CLR,SKC,0.47,WeatherDisplay:10.37,2013-04-10 13:03:00,
2013-04-10 08:13:00,42.0,40.7,29.82,NW,315,5.0,8.0,95,0.00,CLR,SKC,0.47,WeatherDisplay:10.37,2013-04-10 13:13:00,
2013-04-10 08:18:00,42.0,40.7,29.83,NW,306,2.0,5.0,95,0.00,CLR,SKC,0.47,WeatherDisplay:10.37,2013-04-10 13:18:00,
2013-04-10 08:23:00,41.9,40.6,29.85,WNW,296,2.0,7.0,95,0.00,CLR,SKC,0.47,WeatherDisplay:10.37,2013-04-10 13:23:00,
2013-04-10 08:28:00,41.8,40.5,29.86,NW,305,3.0,7.0,95,0.00,CLR,SKC,0.47,WeatherDisplay:10.37,2013-04-10 13:28:00,
2013-04-10 08:33:00,41.8,40.4,29.86,NW,319,2.0,8.0,95,0.00,CLR,SKC,0.47,WeatherDisplay:10.37,2013-04-10 13:33:00,
2013-04-10 08:38:00,41.7,40.4,29.86,NW,319,5.0,10.0,95,0.00,CLR,SKC,0.47,WeatherDisplay:10.37,2013-04-10 13:38:00,
2013-04-10 08:43:00,41.5,40.2,29.86,NW,305,5.0,7.0,95,0.00,CLR,SKC,0.47,WeatherDisplay:10.37,2013-04-10 13:43:00,
2013-04-10 08:53:00,41.1,39.8,29.87,WNW,296,5.0,10.0,95,0.00,CLR,SKC,0.47,WeatherDisplay:10.37,2013-04-10 13:53:00,
2013-04-10 08:58:00,41.2,39.9,29.87,WNW,300,3.0,7.0,95,0.00,CLR,SKC,0.47,WeatherDisplay:10.37,2013-04-10 13:58:00,
2013-04-10 09:03:00,41.2,39.9,29.89,WNW,297,2.0,5.0,95,0.00,CLR,SKC,0.47,WeatherDisplay:10.37,2013-04-10 14:03:00,
2013-04-10 09:08:00,41.2,39.9,29.90,West,267,3.0,8.0,95,0.00,CLR,SKC,0.47,WeatherDisplay:10.37,2013-04-10 14:08:00,
2013-04-10 09:13:00,40.8,39.2,29.91,WNW,290,6.0,13.0,94,0.00,CLR,SKC,0.47,WeatherDisplay:10.37,2013-04-10 14:13:00,
2013-04-10 09:18:00,40.6,39.0,29.90,WNW,295,3.0,8.0,94,0.01,RA,SKC,0.48,WeatherDisplay:10.37,2013-04-10 14:18:00,
2013-04-10 09:23:00,40.6,39.3,29.87,WNW,302,3.0,7.0,95,0.01,RA,SKC,0.49,WeatherDisplay:10.37,2013-04-10 14:23:00,
2013-04-10 09:28:00,40.5,39.2,29.83,NNW,345,7.0,10.0,95,0.00,RA,SKC,0.49,WeatherDisplay:10.37,2013-04-10 14:28:00,
2013-04-10 09:33:00,40.3,39.0,29.81,NNW,341,18.0,28.0,95,0.00,,SKC,0.49,WeatherDisplay:10.37,2013-04-10 14:33:00,
2013-04-10 09:38:00,40.2,38.9,29.82,NNW,332,9.0,20.0,95,0.01,RA,SKC,0.50,WeatherDisplay:10.37,2013-04-10 14:38:00,
2013-04-10 09:43:00,40.2,39.1,29.86,NW,315,7.0,10.0,96,0.00,RA,SKC,0.50,WeatherDisplay:10.37,2013-04-10 14:43:00,
2013-04-10 09:48:00,40.1,39.1,29.84,NW,306,3.0,7.0,96,0.00,,SKC,0.50,WeatherDisplay:10.37,2013-04-10 14:48:00,
2013-04-10 09:53:00,40.1,39.1,29.85,WNW,301,0.0,7.0,96,0.00,CLR,SKC,0.50,WeatherDisplay:10.37,2013-04-10 14:53:00,
2013-04-10 09:58:00,40.1,39.1,29.88,West,269,2.0,7.0,96,0.00,CLR,SKC,0.50,WeatherDisplay:10.37,2013-04-10 14:58:00,
2013-04-10 10:03:00,40.1,39.1,29.90,West,279,0.0,3.0,96,0.00,CLR,SKC,0.50,WeatherDisplay:10.37,2013-04-10 15:03:00,
2013-04-10 10:08:00,40.1,39.1,29.90,WNW,285,1.0,6.0,96,0.01,RA,SKC,0.51,WeatherDisplay:10.37,2013-04-10 15:08:00,
2013-04-10 10:18:00,40.1,39.1,29.92,WSW,256,1.0,3.0,96,0.02,RA,SKC,0.55,WeatherDisplay:10.37,2013-04-10 15:18:00,
2013-04-10 10:28:00,40.2,39.2,29.86,NW,326,6.0,7.0,96,0.02,RA,SKC,0.59,WeatherDisplay:10.37,2013-04-10 15:28:00,
2013-04-10 10:33:00,40.3,39.3,29.88,NW,317,3.0,7.0,96,0.01,RA,SKC,0.60,WeatherDisplay:10.37,2013-04-10 15:33:00,
2013-04-10 10:38:00,40.4,39.4,29.89,WNW,293,1.0,6.0,96,0.00,RA,SKC,0.60,WeatherDisplay:10.37,2013-04-10 15:38:00,
2013-04-10 10:43:00,40.3,39.3,29.91,WNW,301,6.0,8.0,96,0.00,CLR,SKC,0.60,WeatherDisplay:10.37,2013-04-10 15:43:00,
2013-04-10 10:48:00,40.3,39.3,29.90,WNW,297,1.0,5.0,96,0.01,RA,SKC,0.61,WeatherDisplay:10.37,2013-04-10 15:48:00,
2013-04-10 10:53:00,40.2,39.1,29.88,NW,306,5.0,10.0,96,0.00,RA,SKC,0.61,WeatherDisplay:10.37,2013-04-10 15:53:00,
2013-04-10 10:58:00,40.1,39.1,29.89,WNW,303,3.0,7.0,96,0.01,RA,SKC,0.62,WeatherDisplay:10.37,2013-04-10 15:58:00,
2013-04-10 11:03:00,40.1,39.1,29.88,WNW,296,1.0,8.0,96,0.00,RA,SKC,0.63,WeatherDisplay:10.37,2013-04-10 16:03:00,
2013-04-10 11:08:00,40.1,39.1,29.86,NW,316,1.0,3.0,96,0.02,RA,SKC,0.64,WeatherDisplay:10.37,2013-04-10 16:08:00,
2013-04-10 11:13:00,40.2,39.2,29.84,North,350,6.0,14.0,96,0.00,RA,SKC,0.64,WeatherDisplay:10.37,2013-04-10 16:13:00,
2013-04-10 11:18:00,40.2,39.2,29.85,NNW,340,5.0,15.0,96,0.00,,SKC,0.64,WeatherDisplay:10.37,2013-04-10 16:18:00,
2013-04-10 11:23:00,40.4,39.6,29.85,NNW,346,1.0,7.0,97,0.01,RA,SKC,0.65,WeatherDisplay:10.37,2013-04-10 16:23:00,
2013-04-10 11:28:00,40.6,39.8,29.86,NNW,341,3.0,7.0,97,0.00,RA,SKC,0.65,WeatherDisplay:10.37,2013-04-10 16:28:00,
2013-04-10 11:33:00,40.5,39.5,29.86,NW,311,1.0,5.0,96,0.00,CLR,SKC,0.65,WeatherDisplay:10.37,2013-04-10 16:33:00,
2013-04-10 11:43:00,40.6,39.5,29.87,NW,307,5.0,8.0,96,0.00,CLR,SKC,0.66,WeatherDisplay:10.37,2013-04-10 16:43:00,
2013-04-10 11:48:00,40.5,39.5,29.85,NW,316,5.0,12.0,96,0.01,RA,SKC,0.66,WeatherDisplay:10.37,2013-04-10 16:48:00,
2013-04-10 11:53:00,40.6,39.6,29.84,NW,320,3.0,8.0,96,0.01,RA,SKC,0.67,WeatherDisplay:10.37,2013-04-10 16:53:00,
2013-04-10 11:58:00,40.7,39.7,29.85,NW,317,5.0,8.0,96,0.00,RA,SKC,0.67,WeatherDisplay:10.37,2013-04-10 16:58:00,
2013-04-10 12:03:00,40.7,39.7,29.85,NW,322,6.0,10.0,96,0.00,,SKC,0.67,WeatherDisplay:10.37,2013-04-10 17:03:00,
2013-04-10 12:08:00,40.7,39.6,29.87,NW,319,9.0,12.0,96,0.00,CLR,SKC,0.67,WeatherDisplay:10.37,2013-04-10 17:08:00,
2013-04-10 12:13:00,40.7,39.7,29.88,NW,315,3.0,8.0,96,0.01,RA,SKC,0.68,WeatherDisplay:10.37,2013-04-10 17:13:00,
2013-04-10 12:18:00,40.5,39.5,29.87,WNW,298,3.0,10.0,96,0.01,RA,SKC,0.69,WeatherDisplay:10.37,2013-04-10 17:18:00,
2013-04-10 12:23:00,40.6,39.6,29.86,NW,304,2.0,7.0,96,0.02,RA,SKC,0.71,WeatherDisplay:10.37,2013-04-10 17:23:00,
2013-04-10 12:28:00,40.4,39.4,29.83,NNW,340,6.0,12.0,96,0.01,RA,SKC,0.73,WeatherDisplay:10.37,2013-04-10 17:28:00,
2013-04-10 12:33:00,40.6,39.6,29.83,NNW,330,6.0,11.0,96,0.02,RA,SKC,0.74,WeatherDisplay:10.37,2013-04-10 17:33:00,
2013-04-10 12:43:00,41.5,40.7,29.85,NW,307,3.0,10.0,97,0.00,RA,SKC,0.75,WeatherDisplay:10.37,2013-04-10 17:43:00,
2013-04-10 12:48:00,41.4,40.3,29.84,NW,323,8.0,13.0,96,0.00,,SKC,0.75,WeatherDisplay:10.37,2013-04-10 17:48:00,
2013-04-10 12:53:00,41.4,40.4,29.84,NNW,329,5.0,13.0,96,0.00,CLR,SKC,0.75,WeatherDisplay:10.37,2013-04-10 17:53:00,
2013-04-10 12:58:00,41.6,40.6,29.84,NW,311,7.0,12.0,96,0.00,CLR,SKC,0.75,WeatherDisplay:10.37,2013-04-10 17:58:00,
2013-04-10 13:03:00,41.7,40.7,29.84,NW,321,8.0,10.0,96,0.00,CLR,SKC,0.75,WeatherDisplay:10.37,2013-04-10 18:03:00,
2013-04-10 13:13:00,41.6,40.3,29.83,NW,314,5.0,8.0,95,0.00,CLR,SKC,0.75,WeatherDisplay:10.37,2013-04-10 18:13:00,
2013-04-10 13:18:00,41.5,40.2,29.83,NW,311,6.0,13.0,95,0.00,CLR,SKC,0.75,WeatherDisplay:10.37,2013-04-10 18:18:00,
2013-04-10 13:28:00,41.6,40.3,29.81,NW,317,3.0,7.0,95,0.00,CLR,SKC,0.75,WeatherDisplay:10.37,2013-04-10 18:28:00,
2013-04-10 13:33:00,41.8,40.5,29.81,NW,325,6.0,15.0,95,0.00,CLR,SKC,0.75,WeatherDisplay:10.37,2013-04-10 18:33:00,
2013-04-10 13:38:00,41.9,40.6,29.81,NNW,329,3.0,8.0,95,0.00,CLR,SKC,0.75,WeatherDisplay:10.37,2013-04-10 18:38:00,
2013-04-10 13:43:00,41.8,40.5,29.81,NW,315,3.0,13.0,95,0.00,CLR,SKC,0.75,WeatherDisplay:10.37,2013-04-10 18:43:00,
2013-04-10 13:48:00,41.8,40.4,29.82,NW,307,2.0,8.0,95,0.00,CLR,SKC,0.75,WeatherDisplay:10.37,2013-04-10 18:48:00,
2013-04-10 13:53:00,41.7,40.4,29.83,NW,312,2.0,7.0,95,0.00,CLR,SKC,0.75,WeatherDisplay:10.37,2013-04-10 18:53:00,
2013-04-10 13:58:00,41.6,40.0,29.84,NW,308,6.0,8.0,94,0.00,CLR,SKC,0.75,WeatherDisplay:10.37,2013-04-10 18:58:00,
2013-04-10 14:03:00,41.6,40.3,29.85,NW,308,6.0,7.0,95,0.00,CLR,SKC,0.75,WeatherDisplay:10.37,2013-04-10 19:03:00,
2013-04-10 14:13:00,41.6,40.3,29.85,WNW,300,9.0,12.0,95,0.01,RA,SKC,0.77,WeatherDisplay:10.37,2013-04-10 19:13:00,
2013-04-10 14:18:00,41.6,40.3,29.84,NW,306,5.0,10.0,95,0.01,RA,SKC,0.78,WeatherDisplay:10.37,2013-04-10 19:18:00,
2013-04-10 14:23:00,41.5,40.2,29.83,NW,307,7.0,13.0,95,0.01,RA,SKC,0.79,WeatherDisplay:10.37,2013-04-10 19:23:00,
2013-04-10 14:28:00,41.3,40.0,29.84,NW,304,8.0,12.0,95,0.00,RA,SKC,0.79,WeatherDisplay:10.37,2013-04-10 19:28:00,
2013-04-10 14:38:00,41.0,39.7,29.85,WNW,300,5.0,13.0,95,0.01,RA,SKC,0.80,WeatherDisplay:10.37,2013-04-10 19:38:00,
2013-04-10 14:43:00,40.9,39.6,29.85,WNW,292,8.0,12.0,95,0.01,RA,SKC,0.81,WeatherDisplay:10.37,2013-04-10 19:43:00,
2013-04-10 14:48:00,40.9,39.6,29.85,WNW,300,5.0,10.0,95,0.01,RA,SKC,0.82,WeatherDisplay:10.37,2013-04-10 19:48:00,
2013-04-10 14:53:00,40.8,39.5,29.85,NW,306,5.0,12.0,95,0.01,RA,SKC,0.83,WeatherDisplay:10.37,2013-04-10 19:53:00,
2013-04-10 14:58:00,40.6,39.3,29.84,WNW,301,8.0,13.0,95,0.01,RA,SKC,0.84,WeatherDisplay:10.37,2013-04-10 19:58:00,
2013-04-10 15:03:00,40.3,39.0,29.84,NW,308,5.0,13.0,95,0.01,RA,SKC,0.85,WeatherDisplay:10.37,2013-04-10 20:03:00,
2013-04-10 15:08:00,40.2,38.9,29.86,NW,307,5.0,8.0,95,0.01,RA,SKC,0.86,WeatherDisplay:10.37,2013-04-10 20:08:00,
2013-04-10 15:18:00,39.9,38.6,29.79,NW,321,8.0,18.0,95,0.01,RA,SKC,0.87,WeatherDisplay:10.37,2013-04-10 20:18:00,
2013-04-10 15:28:00,39.6,38.3,29.82,NW,312,6.0,15.0,95,0.00,RA,SKC,0.89,WeatherDisplay:10.37,2013-04-10 20:28:00,
2013-04-10 15:33:00,39.5,38.2,29.82,NW,317,6.0,13.0,95,0.01,RA,SKC,0.90,WeatherDisplay:10.37,2013-04-10 20:33:00,
2013-04-10 15:38:00,39.4,38.1,29.80,North,349,7.0,22.0,95,0.00,RA,SKC,0.90,WeatherDisplay:10.37,2013-04-10 20:38:00,
2013-04-10 15:43:00,39.8,38.8,29.80,NNW,347,2.0,8.0,96,0.00,CLR,SKC,0.90,WeatherDisplay:10.37,2013-04-10 20:43:00,
2013-04-10 15:48:00,39.9,38.9,29.80,NNW,340,2.0,10.0,96,0.01,RA,SKC,0.91,WeatherDisplay:10.37,2013-04-10 20:48:00,
2013-04-10 15:53:00,40.3,39.2,29.80,North,355,9.0,16.0,96,0.00,RA,SKC,0.91,WeatherDisplay:10.37,2013-04-10 20:53:00,
2013-04-10 15:58:00,40.2,38.9,29.81,NNW,328,7.0,13.0,95,0.01,RA,SKC,0.92,WeatherDisplay:10.37,2013-04-10 20:58:00,
2013-04-10 16:03:00,40.1,38.8,29.81,NW,325,6.0,12.0,95,0.00,RA,SKC,0.92,WeatherDisplay:10.37,2013-04-10 21:03:00,
2013-04-10 16:08:00,40.0,38.7,29.80,NNW,330,7.0,12.0,95,0.00,CLR,SKC,0.92,WeatherDisplay:10.37,2013-04-10 21:08:00,
2013-04-10 16:13:00,40.0,38.7,29.80,NNW,332,2.0,10.0,95,0.00,CLR,SKC,0.92,WeatherDisplay:10.37,2013-04-10 21:13:00,
2013-04-10 16:18:00,40.1,38.8,29.80,NW,324,6.0,10.0,95,0.00,CLR,SKC,0.92,WeatherDisplay:10.37,2013-04-10 21:18:00,
2013-04-10 16:23:00,40.2,38.9,29.78,NNW,328,6.0,13.0,95,0.00,CLR,SKC,0.92,WeatherDisplay:10.37,2013-04-10 21:23:00,
2013-04-10 16:28:00,40.3,39.0,29.77,NW,325,5.0,8.0,95,0.00,CLR,SKC,0.92,WeatherDisplay:10.37,2013-04-10 21:28:00,
2013-04-10 16:38:00,40.5,39.2,29.75,NNW,337,9.0,18.0,95,0.00,CLR,SKC,0.92,WeatherDisplay:10.37,2013-04-10 21:38:00,
2013-04-10 16:48:00,40.5,39.2,29.78,North,350,1.0,7.0,95,0.00,CLR,SKC,0.92,WeatherDisplay:10.37,2013-04-10 21:48:00,
2013-04-10 16:53:00,40.5,39.2,29.79,NW,315,2.0,8.0,95,0.00,CLR,SKC,0.92,WeatherDisplay:10.37,2013-04-10 21:53:00,
2013-04-10 16:58:00,40.6,39.3,29.78,NW,312,2.0,10.0,95,0.01,RA,SKC,0.93,WeatherDisplay:10.37,2013-04-10 21:58:00,
2013-04-10 17:03:00,40.6,39.3,29.78,NW,307,3.0,10.0,95,0.01,RA,SKC,0.94,WeatherDisplay:10.37,2013-04-10 22:03:00,
2013-04-10 17:08:00,40.7,39.4,29.79,WNW,301,2.0,7.0,95,0.01,RA,SKC,0.95,WeatherDisplay:10.37,2013-04-10 22:08:00,
2013-04-10 17:13:00,40.7,39.4,29.79,WNW,303,1.0,5.0,95,0.00,RA,SKC,0.95,WeatherDisplay:10.37,2013-04-10 22:13:00,
2013-04-10 17:18:00,40.8,39.7,29.78,NW,310,1.0,7.0,96,0.00,,SKC,0.95,WeatherDisplay:10.37,2013-04-10 22:18:00,
2013-04-10 17:23:00,40.9,39.9,29.77,NNW,332,5.0,8.0,96,0.00,CLR,SKC,0.95,WeatherDisplay:10.37,2013-04-10 22:23:00,
2013-04-10 17:28:00,40.9,39.9,29.78,NW,323,3.0,8.0,96,0.00,CLR,SKC,0.95,WeatherDisplay:10.37,2013-04-10 22:28:00,
2013-04-10 17:33:00,40.9,39.6,29.78,NNW,329,3.0,7.0,95,0.00,CLR,SKC,0.95,WeatherDisplay:10.37,2013-04-10 22:33:00,
2013-04-10 17:38:00,41.0,40.0,29.78,NNW,331,2.0,10.0,96,0.00,CLR,SKC,0.95,WeatherDisplay:10.37,2013-04-10 22:38:00,
2013-04-10 17:43:00,41.1,39.7,29.79,NW,317,2.0,7.0,95,0.00,CLR,SKC,0.95,WeatherDisplay:10.37,2013-04-10 22:43:00,
2013-04-10 17:48:00,41.1,39.8,29.77,NW,323,3.0,7.0,95,0.00,CLR,SKC,0.95,WeatherDisplay:10.37,2013-04-10 22:48:00,
2013-04-10 17:53:00,41.1,39.8,29.77,NW,324,2.0,7.0,95,0.00,CLR,SKC,0.95,WeatherDisplay:10.37,2013-04-10 22:53:00,
2013-04-10 17:58:00,41.1,39.8,29.76,NW,314,2.0,12.0,95,0.00,CLR,SKC,0.95,WeatherDisplay:10.37,2013-04-10 22:58:00,
2013-04-10 18:03:00,41.1,39.8,29.77,NW,305,6.0,10.0,95,0.00,CLR,SKC,0.95,WeatherDisplay:10.37,2013-04-10 23:03:00,
2013-04-10 18:08:00,41.1,39.8,29.77,WNW,298,5.0,12.0,95,0.00,CLR,SKC,0.95,WeatherDisplay:10.37,2013-04-10 23:08:00,
2013-04-10 18:13:00,41.0,39.7,29.77,WNW,303,3.0,13.0,95,0.00,CLR,SKC,0.95,WeatherDisplay:10.37,2013-04-10 23:13:00,
2013-04-10 18:18:00,41.1,39.8,29.77,NW,313,1.0,10.0,95,0.00,CLR,SKC,0.95,WeatherDisplay:10.37,2013-04-10 23:18:00,
2013-04-10 18:23:00,41.0,39.7,29.77,NW,304,5.0,10.0,95,0.00,CLR,SKC,0.95,WeatherDisplay:10.37,2013-04-10 23:23:00,
2013-04-10 18:33:00,40.9,39.9,29.78,NW,325,2.0,13.0,96,0.00,CLR,SKC,0.95,WeatherDisplay:10.37,2013-04-10 23:33:00,
2013-04-10 18:43:00,41.0,40.0,29.77,NW,314,2.0,10.0,96,0.00,CLR,SKC,0.95,WeatherDisplay:10.37,2013-04-10 23:43:00,
2013-04-10 18:48:00,41.0,40.0,29.77,NW,322,2.0,8.0,96,0.00,CLR,SKC,0.95,WeatherDisplay:10.37,2013-04-10 23:48:00,
2013-04-10 18:58:00,41.1,40.1,29.77,WNW,297,5.0,7.0,96,0.00,CLR,SKC,0.95,WeatherDisplay:10.37,2013-04-10 23:58:00,
2013-04-10 19:03:00,41.2,40.1,29.77,WNW,303,2.0,5.0,96,0.00,CLR,SKC,0.95,WeatherDisplay:10.37,2013-04-11 00:03:00,
2013-04-10 19:08:00,41.1,40.1,29.78,WNW,301,2.0,7.0,96,0.00,CLR,SKC,0.95,WeatherDisplay:10.37,2013-04-11 00:08:00,
2013-04-10 19:18:00,41.2,40.1,29.78,WNW,302,2.0,7.0,96,0.00,CLR,SKC,0.95,WeatherDisplay:10.37,2013-04-11 00:18:00,
2013-04-10 19:23:00,41.2,40.2,29.79,NW,307,5.0,7.0,96,0.00,CLR,SKC,0.95,WeatherDisplay:10.37,2013-04-11 00:23:00,
2013-04-10 19:28:00,41.1,40.1,29.79,WNW,292,5.0,8.0,96,0.00,CLR,SKC,0.95,WeatherDisplay:10.37,2013-04-11 00:28:00,
2013-04-10 19:33:00,41.1,40.1,29.80,WNW,282,2.0,8.0,96,0.00,CLR,SKC,0.95,WeatherDisplay:10.37,2013-04-11 00:33:00,
2013-04-10 19:38:00,41.1,40.1,29.81,West,271,2.0,10.0,96,0.00,CLR,SKC,0.95,WeatherDisplay:10.37,2013-04-11 00:38:00,
2013-04-10 19:48:00,41.0,39.9,29.80,WNW,301,3.0,8.0,96,0.00,RA,SKC,0.96,WeatherDisplay:10.37,2013-04-11 00:48:00,
2013-04-10 19:53:00,40.9,39.9,29.80,WNW,290,5.0,13.0,96,0.00,CLR,SKC,0.96,WeatherDisplay:10.37,2013-04-11 00:53:00,
2013-04-10 19:58:00,40.8,39.8,29.80,WNW,282,1.0,8.0,96,0.00,CLR,SKC,0.96,WeatherDisplay:10.37,2013-04-11 00:58:00,
2013-04-10 20:03:00,40.7,39.7,29.80,WNW,295,2.0,10.0,96,0.00,CLR,SKC,0.96,WeatherDisplay:10.37,2013-04-11 01:03:00,
2013-04-10 20:08:00,40.7,39.7,29.79,WNW,301,0.0,5.0,96,0.00,CLR,SKC,0.96,WeatherDisplay:10.37,2013-04-11 01:08:00,
2013-04-10 20:18:00,40.7,39.9,29.79,NW,304,1.0,3.0,97,0.00,CLR,SKC,0.96,WeatherDisplay:10.37,2013-04-11 01:18:00,
2013-04-10 20:23:00,40.6,39.8,29.79,WNW,286,2.0,7.0,97,0.00,CLR,SKC,0.96,WeatherDisplay:10.37,2013-04-11 01:23:00,
2013-04-10 20:28:00,40.6,39.8,29.80,West,279,0.0,3.0,97,0.00,CLR,SKC,0.96,WeatherDisplay:10.37,2013-04-11 01:28:00,
2013-04-10 20:33:00,40.6,39.8,29.80,West,279,2.0,7.0,97,0.00,CLR,SKC,0.96,WeatherDisplay:10.37,2013-04-11 01:33:00,
2013-04-10 20:40:00,40.5,39.5,29.80,WNW,299,3.0,8.0,96,0.00,CLR,SKC,0.96,WeatherDisplay:10.37,2013-04-11 01:40:00,
2013-04-10 20:45:00,40.4,39.4,29.80,WNW,299,2.0,5.0,96,0.00,CLR,SKC,0.96,WeatherDisplay:10.37,2013-04-11 01:45:00,
2013-04-10 20:50:00,40.3,39.3,29.80,WNW,298,3.0,7.0,96,0.01,RA,SKC,0.97,WeatherDisplay:10.37,2013-04-11 01:50:00,
2013-04-10 20:55:00,40.2,39.2,29.79,WNW,296,1.0,5.0,96,0.00,RA,SKC,0.97,WeatherDisplay:10.37,2013-04-11 01:55:00,
2013-04-10 21:00:00,40.2,39.4,29.80,NW,306,3.0,6.0,97,0.00,CLR,SKC,0.97,WeatherDisplay:10.37,2013-04-11 02:00:00,
2013-04-10 21:05:00,40.1,39.1,29.80,WNW,301,3.0,5.0,96,0.00,CLR,SKC,0.97,WeatherDisplay:10.37,2013-04-11 02:05:00,
2013-04-10 21:10:00,40.1,39.1,29.80,WNW,292,2.0,5.0,96,0.00,CLR,SKC,0.97,WeatherDisplay:10.37,2013-04-11 02:10:00,
2013-04-10 21:15:00,40.1,39.1,29.80,WNW,296,2.0,5.0,96,0.00,CLR,SKC,0.97,WeatherDisplay:10.37,2013-04-11 02:15:00,
2013-04-10 21:20:00,40.1,39.1,29.79,WNW,299,3.0,5.0,96,0.00,CLR,SKC,0.97,WeatherDisplay:10.37,2013-04-11 02:20:00,
2013-04-10 21:25:00,40.1,39.1,29.80,NW,306,2.0,6.0,96,0.00,CLR,SKC,0.97,WeatherDisplay:10.37,2013-04-11 02:25:00,
2013-04-10 21:30:00,40.1,39.1,29.80,NW,322,2.0,8.0,96,0.00,CLR,SKC,0.97,WeatherDisplay:10.37,2013-04-11 02:30:00,
2013-04-10 21:35:00,40.2,39.2,29.81,NW,309,2.0,5.0,96,0.00,CLR,SKC,0.97,WeatherDisplay:10.37,2013-04-11 02:35:00,
2013-04-10 21:40:00,40.1,39.1,29.80,NW,314,1.0,7.0,96,0.00,CLR,SKC,0.97,WeatherDisplay:10.37,2013-04-11 02:40:00,
2013-04-10 21:50:00,40.2,39.1,29.81,WNW,301,2.0,7.0,96,0.00,CLR,SKC,0.97,WeatherDisplay:10.37,2013-04-11 02:50:00,
2013-04-10 21:55:00,40.2,39.1,29.81,WNW,286,0.0,3.0,96,0.00,CLR,SKC,0.97,WeatherDisplay:10.37,2013-04-11 02:55:00,
2013-04-10 22:00:00,40.2,39.1,29.80,West,276,0.0,5.0,96,0.00,CLR,SKC,0.97,WeatherDisplay:10.37,2013-04-11 03:00:00,
2013-04-10 22:05:00,40.1,39.0,29.80,WNW,299,6.0,10.0,96,0.00,CLR,SKC,0.97,WeatherDisplay:10.37,2013-04-11 03:05:00,
2013-04-10 22:10:00,40.0,39.0,29.80,WNW,303,5.0,8.0,96,0.00,CLR,SKC,0.97,WeatherDisplay:10.37,2013-04-11 03:10:00,
2013-04-10 22:15:00,40.0,39.0,29.81,WNW,289,2.0,8.0,96,0.00,CLR,SKC,0.97,WeatherDisplay:10.37,2013-04-11 03:15:00,
2013-04-10 22:20:00,40.0,39.0,29.82,West,280,3.0,7.0,96,0.00,CLR,SKC,0.97,WeatherDisplay:10.37,2013-04-11 03:20:00,
2013-04-10 22:25:00,40.0,38.9,29.82,West,278,2.0,8.0,96,0.00,CLR,SKC,0.97,WeatherDisplay:10.37,2013-04-11 03:25:00,
2013-04-10 22:30:00,39.8,38.8,29.82,West,274,2.0,10.0,96,0.00,CLR,SKC,0.97,WeatherDisplay:10.37,2013-04-11 03:30:00,
2013-04-10 22:35:00,39.8,38.8,29.82,West,271,7.0,10.0,96,0.00,CLR,SKC,0.97,WeatherDisplay:10.37,2013-04-11 03:35:00,
2013-04-10 22:40:00,39.6,38.6,29.82,WNW,283,3.0,8.0,96,0.00,CLR,SKC,0.97,WeatherDisplay:10.37,2013-04-11 03:40:00,
2013-04-10 22:45:00,39.6,38.6,29.83,WNW,288,2.0,8.0,96,0.00,CLR,SKC,0.97,WeatherDisplay:10.37,2013-04-11 03:45:00,
2013-04-10 22:50:00,39.5,38.5,29.83,WNW,287,5.0,10.0,96,0.00,CLR,SKC,0.97,WeatherDisplay:10.37,2013-04-11 03:50:00,
2013-04-10 22:55:00,39.4,38.4,29.83,WNW,286,3.0,7.0,96,0.00,CLR,SKC,0.97,WeatherDisplay:10.37,2013-04-11 03:55:00,
2013-04-10 23:00:00,39.3,38.3,29.83,West,280,3.0,7.0,96,0.00,CLR,SKC,0.97,WeatherDisplay:10.37,2013-04-11 04:00:00,
2013-04-10 23:05:00,39.2,38.2,29.83,West,275,5.0,8.0,96,0.00,CLR,SKC,0.97,WeatherDisplay:10.37,2013-04-11 04:05:00,
2013-04-10 23:10:00,39.0,38.0,29.83,WNW,296,8.0,15.0,96,0.00,CLR,SKC,0.97,WeatherDisplay:10.37,2013-04-11 04:10:00,
2013-04-10 23:15:00,38.9,37.8,29.83,WNW,289,6.0,10.0,96,0.00,CLR,SKC,0.97,WeatherDisplay:10.37,2013-04-11 04:15:00,
2013-04-10 23:20:00,38.8,37.8,29.83,WNW,290,3.0,7.0,96,0.00,CLR,SKC,0.97,WeatherDisplay:10.37,2013-04-11 04:20:00,
2013-04-10 23:25:00,38.7,37.7,29.82,WNW,290,1.0,7.0,96,0.00,CLR,SKC,0.97,WeatherDisplay:10.37,2013-04-11 04:25:00,
2013-04-10 23:30:00,38.5,37.4,29.82,West,279,5.0,10.0,96,0.00,CLR,SKC,0.97,WeatherDisplay:10.37,2013-04-11 04:30:00,
2013-04-10 23:35:00,37.8,36.5,29.82,WNW,286,5.0,15.0,95,0.00,CLR,SKC,0.97,WeatherDisplay:10.37,2013-04-11 04:35:00,
2013-04-10 23:40:00,37.4,36.4,29.82,WNW,283,7.0,11.0,96,0.00,CLR,SKC,0.97,WeatherDisplay:10.37,2013-04-11 04:40:00,
2013-04-10 23:45:00,37.1,36.1,29.82,West,281,5.0,15.0,96,0.00,CLR,SKC,0.97,WeatherDisplay:10.37,2013-04-11 04:45:00,
2013-04-10 23:50:00,37.0,36.0,29.82,WNW,284,3.0,10.0,96,0.00,CLR,SKC,0.97,WeatherDisplay:10.37,2013-04-11 04:50:00,
2013-04-10 23:55:00,36.8,35.8,29.82,WNW,285,8.0,16.0,96,0.00,CLR,SKC,0.97,WeatherDisplay:10.37,2013-04-11 04:55:00,